createdAt,value
2022-12-18T00:01:17.309Z,38.20
2022-12-18T00:03:38.777Z,40.13
2022-12-18T00:06:00.010Z,40.30
2022-12-18T00:08:21.538Z,40.80
2022-12-18T00:10:42.327Z,40.57
2022-12-18T00:13:06.636Z,40.80
2022-12-18T00:15:32.326Z,41.23
2022-12-18T00:17:53.254Z,40.50
2022-12-18T00:20:14.651Z,41.33
2022-12-18T00:22:36.103Z,40.43
2022-12-18T00:24:57.011Z,39.03
2022-12-18T00:27:18.540Z,38.63
2022-12-18T00:29:39.978Z,37.50
2022-12-18T00:32:02.477Z,36.10
2022-12-18T00:34:23.647Z,36.17
2022-12-18T00:36:45.011Z,34.90
2022-12-18T00:39:06.962Z,37.03
2022-12-18T00:41:46.009Z,33.73
2022-12-18T00:44:08.148Z,33.53
2022-12-18T00:46:29.141Z,33.97
2022-12-18T00:48:51.850Z,33.47
2022-12-18T00:51:13.206Z,32.40
2022-12-18T00:53:34.702Z,34.87
2022-12-18T00:55:56.048Z,34.47
2022-12-18T00:58:18.156Z,36.57
2022-12-18T01:00:39.351Z,36.17
2022-12-18T01:03:00.916Z,35.40
2022-12-18T01:05:23.197Z,35.23
2022-12-18T01:07:44.347Z,35.10
2022-12-18T01:10:06.623Z,34.77
2022-12-18T01:12:27.881Z,33.90
2022-12-18T01:14:49.210Z,33.77
2022-12-18T01:17:10.261Z,34.30
2022-12-18T01:19:31.691Z,35.83
2022-12-18T01:21:53.866Z,35.97
2022-12-18T01:24:15.733Z,36.40
2022-12-18T01:26:37.089Z,36.13
2022-12-18T01:28:58.958Z,36.67
2022-12-18T01:31:21.703Z,33.13
2022-12-18T01:33:43.294Z,35.47
2022-12-18T01:36:04.778Z,36.57
2022-12-18T01:38:27.568Z,36.50
2022-12-18T01:40:48.606Z,34.97
2022-12-18T01:43:11.027Z,34.73
2022-12-18T01:45:32.671Z,34.13
2022-12-18T01:47:54.774Z,36.37
2022-12-18T01:50:16.948Z,36.50
2022-12-18T01:52:42.215Z,34.13
2022-12-18T01:55:06.769Z,36.53
2022-12-18T01:57:29.039Z,39.10
2022-12-18T01:59:52.486Z,35.43
2022-12-18T02:02:13.872Z,34.73
2022-12-18T02:04:34.946Z,36.10
2022-12-18T02:07:01.814Z,39.60
2022-12-18T02:09:27.324Z,34.73
2022-12-18T02:11:54.926Z,36.27
2022-12-18T02:14:20.397Z,38.27
2022-12-18T02:16:44.870Z,37.63
2022-12-18T02:19:08.510Z,36.23
2022-12-18T02:21:34.807Z,34.70
2022-12-18T02:23:58.965Z,34.03
2022-12-18T02:26:24.047Z,32.43
2022-12-18T02:28:47.729Z,34.33
2022-12-18T02:31:11.408Z,32.23
2022-12-18T02:33:33.069Z,33.07
2022-12-18T02:35:55.926Z,33.43
2022-12-18T02:38:17.730Z,32.50
2022-12-18T02:40:39.267Z,30.90
2022-12-18T02:43:08.911Z,31.33
2022-12-18T02:45:30.209Z,31.33
2022-12-18T02:47:51.693Z,33.17
2022-12-18T02:50:22.393Z,31.27
2022-12-18T02:52:45.277Z,30.90
2022-12-18T02:55:15.228Z,31.63
2022-12-18T02:57:38.912Z,33.43
2022-12-18T03:00:03.973Z,32.17
2022-12-18T03:02:29.169Z,32.33
2022-12-18T03:04:52.741Z,31.50
2022-12-18T03:07:17.604Z,30.57
2022-12-18T03:09:40.328Z,29.37
2022-12-18T03:12:22.728Z,30.90
2022-12-18T03:14:45.431Z,33.27
2022-12-18T03:17:09.929Z,31.87
2022-12-18T03:19:33.398Z,31.70
2022-12-18T03:21:56.369Z,32.50
2022-12-18T03:24:17.978Z,33.50
2022-12-18T03:26:40.646Z,32.93
2022-12-18T03:29:05.341Z,32.77
2022-12-18T03:31:28.302Z,31.67
2022-12-18T03:33:53.565Z,32.77
2022-12-18T03:36:14.660Z,34.40
2022-12-18T03:38:36.022Z,32.53
2022-12-18T03:41:01.926Z,31.07
2022-12-18T03:43:29.374Z,31.40
2022-12-18T03:45:53.199Z,32.10
2022-12-18T03:48:18.143Z,32.43
2022-12-18T03:50:47.321Z,30.80
2022-12-18T03:53:16.247Z,31.47
2022-12-18T03:55:38.033Z,30.80
2022-12-18T03:57:59.942Z,31.97
2022-12-18T04:00:21.983Z,34.03
2022-12-18T04:02:45.385Z,34.30
2022-12-18T04:05:08.302Z,30.67
2022-12-18T04:07:30.946Z,33.73
2022-12-18T04:09:53.935Z,33.87
2022-12-18T04:12:15.097Z,32.87
2022-12-18T04:14:36.840Z,32.87
2022-12-18T04:16:58.173Z,33.23
2022-12-18T04:19:19.534Z,33.17
2022-12-18T04:21:40.968Z,33.17
2022-12-18T04:24:03.759Z,31.30
2022-12-18T04:26:25.173Z,31.03
2022-12-18T04:28:46.267Z,29.17
2022-12-18T04:31:07.604Z,31.70
2022-12-18T04:33:28.738Z,29.83
2022-12-18T04:35:49.961Z,29.03
2022-12-18T04:38:11.860Z,30.13
2022-12-18T04:40:36.629Z,29.83
2022-12-18T04:42:57.960Z,30.23
2022-12-18T04:45:19.353Z,29.23
2022-12-18T04:47:40.450Z,29.03
2022-12-18T04:50:01.805Z,29.93
2022-12-18T04:52:25.750Z,29.90
2022-12-18T04:54:46.993Z,28.97
2022-12-18T04:57:09.734Z,27.73
2022-12-18T04:59:31.190Z,29.27
2022-12-18T05:01:52.195Z,29.53
2022-12-18T05:04:13.408Z,27.80
2022-12-18T05:06:34.717Z,27.47
2022-12-18T05:08:55.973Z,27.00
2022-12-18T05:11:17.739Z,26.30
2022-12-18T05:13:41.365Z,27.37
2022-12-18T05:16:03.557Z,28.27
2022-12-18T05:18:25.616Z,24.90
2022-12-18T05:20:47.019Z,26.93
2022-12-18T05:23:08.294Z,28.30
2022-12-18T05:25:29.890Z,27.67
2022-12-18T05:27:51.596Z,27.07
2022-12-18T05:30:14.837Z,26.87
2022-12-18T05:32:36.046Z,26.87
2022-12-18T05:34:58.224Z,28.00
2022-12-18T05:37:19.262Z,27.50
2022-12-18T05:39:40.572Z,27.40
2022-12-18T05:42:02.862Z,26.53
2022-12-18T05:44:23.764Z,25.53
2022-12-18T05:46:46.617Z,25.03
2022-12-18T05:49:08.266Z,25.37
2022-12-18T05:51:29.900Z,26.27
2022-12-18T05:53:50.993Z,29.20
2022-12-18T05:56:13.069Z,26.53
2022-12-18T05:58:34.526Z,26.17
2022-12-18T06:00:55.873Z,26.93
2022-12-18T06:03:18.792Z,26.00
2022-12-18T06:05:40.391Z,25.60
2022-12-18T06:08:01.498Z,25.87
2022-12-18T06:10:22.629Z,26.27
2022-12-18T06:12:44.063Z,24.57
2022-12-18T06:15:05.554Z,24.33
2022-12-18T06:17:29.941Z,24.70
2022-12-18T06:19:52.298Z,27.27
2022-12-18T06:22:13.674Z,26.27
2022-12-18T06:24:35.134Z,26.00
2022-12-18T06:26:56.488Z,26.37
2022-12-18T06:29:17.760Z,25.57
2022-12-18T06:31:39.112Z,25.73
2022-12-18T06:34:00.284Z,26.07
2022-12-18T06:36:24.057Z,25.90
2022-12-18T06:38:45.783Z,27.10
2022-12-18T06:41:08.440Z,26.30
2022-12-18T06:43:29.673Z,27.37
2022-12-18T06:45:53.547Z,28.10
2022-12-18T06:48:14.850Z,27.07
2022-12-18T06:50:36.246Z,26.90
2022-12-18T06:52:58.792Z,27.17
2022-12-18T06:55:21.135Z,27.27
2022-12-18T06:57:42.311Z,26.23
2022-12-18T07:00:04.013Z,26.33
2022-12-18T07:02:25.124Z,26.33
2022-12-18T07:04:46.415Z,26.33
2022-12-18T07:07:07.822Z,25.83
2022-12-18T07:09:30.571Z,26.17
2022-12-18T07:11:51.615Z,27.20
2022-12-18T07:14:12.922Z,27.93
2022-12-18T07:16:34.331Z,26.93
2022-12-18T07:18:56.475Z,27.17
2022-12-18T07:21:20.691Z,26.83
2022-12-18T07:23:42.006Z,24.93
2022-12-18T07:26:05.966Z,25.77
2022-12-18T07:28:26.974Z,27.40
2022-12-18T07:30:48.649Z,25.77
2022-12-18T07:33:10.156Z,27.97
2022-12-18T07:35:31.441Z,26.57
2022-12-18T07:37:52.668Z,25.97
2022-12-18T07:40:14.227Z,25.43
2022-12-18T07:42:37.932Z,26.37
2022-12-18T07:44:59.644Z,27.00
2022-12-18T07:47:20.701Z,26.80
2022-12-18T07:49:42.174Z,27.70
2022-12-18T07:52:03.587Z,28.90
2022-12-18T07:54:25.281Z,27.17
2022-12-18T07:56:46.662Z,27.43
2022-12-18T07:59:09.179Z,28.47
2022-12-18T08:01:30.701Z,28.60
2022-12-18T08:03:52.721Z,28.10
2022-12-18T08:06:14.021Z,27.90
2022-12-18T08:08:36.204Z,28.27
2022-12-18T08:10:57.801Z,28.90
2022-12-18T08:13:18.797Z,28.23
2022-12-18T08:15:41.293Z,27.97
2022-12-18T08:18:02.440Z,27.23
2022-12-18T08:20:23.852Z,26.57
2022-12-18T08:22:45.223Z,27.53
2022-12-18T08:25:07.205Z,26.97
2022-12-18T08:27:29.685Z,28.20
2022-12-18T08:29:51.230Z,26.70
2022-12-18T08:32:14.151Z,27.10
2022-12-18T08:34:35.798Z,27.87
2022-12-18T08:36:56.912Z,27.63
2022-12-18T08:39:18.007Z,27.53
2022-12-18T08:41:39.360Z,27.70
2022-12-18T08:44:18.663Z,27.50
2022-12-18T08:46:40.800Z,27.63
2022-12-18T08:49:03.597Z,27.57
2022-12-18T08:51:24.904Z,28.03
2022-12-18T08:53:46.622Z,28.10
2022-12-18T08:56:08.214Z,29.13
2022-12-18T08:58:29.146Z,29.80
2022-12-18T09:00:50.563Z,28.37
2022-12-18T09:03:13.044Z,28.37
2022-12-18T09:05:35.458Z,29.43
2022-12-18T09:07:57.296Z,29.20
2022-12-18T09:10:18.523Z,28.87
2022-12-18T09:12:40.209Z,27.53
2022-12-18T09:15:01.388Z,27.97
2022-12-18T09:17:22.598Z,27.43
2022-12-18T09:19:44.269Z,27.47
2022-12-18T09:22:06.927Z,28.70
2022-12-18T09:24:28.264Z,29.47
2022-12-18T09:26:51.549Z,28.33
2022-12-18T09:29:16.791Z,29.37
2022-12-18T09:31:40.264Z,29.07
2022-12-18T09:34:01.488Z,26.37
2022-12-18T09:36:22.623Z,26.90
2022-12-18T09:38:45.452Z,27.50
2022-12-18T09:41:07.496Z,31.37
2022-12-18T09:43:31.369Z,30.90
2022-12-18T09:45:53.696Z,31.63
2022-12-18T09:48:17.606Z,30.23
2022-12-18T09:50:41.106Z,30.97
2022-12-18T09:53:07.775Z,34.50
2022-12-18T09:55:37.184Z,34.60
2022-12-18T09:58:01.208Z,34.37
2022-12-18T10:00:23.501Z,33.30
2022-12-18T10:02:44.730Z,33.23
2022-12-18T10:05:11.501Z,33.53
2022-12-18T10:07:36.978Z,33.77
2022-12-18T10:10:03.042Z,35.13
2022-12-18T10:12:29.712Z,33.07
2022-12-18T10:14:55.698Z,34.43
2022-12-18T10:17:21.528Z,31.33
2022-12-18T10:19:50.054Z,32.40
2022-12-18T10:22:20.632Z,33.60
2022-12-18T10:24:44.531Z,35.50
2022-12-18T10:27:13.081Z,38.13
2022-12-18T10:29:35.661Z,35.73
2022-12-18T10:31:57.010Z,33.53
2022-12-18T10:34:18.281Z,34.40
2022-12-18T10:36:39.768Z,34.00
2022-12-18T10:39:15.777Z,33.37
2022-12-18T10:41:37.139Z,35.57
2022-12-18T10:44:13.694Z,34.30
2022-12-18T10:46:36.792Z,37.07
2022-12-18T10:48:58.778Z,35.70
2022-12-18T10:51:25.324Z,36.43
2022-12-18T10:53:53.469Z,36.73
2022-12-18T10:56:14.607Z,38.73
2022-12-18T10:58:36.554Z,35.87
2022-12-18T11:01:08.500Z,39.57
2022-12-18T11:03:33.358Z,39.07
2022-12-18T11:06:03.387Z,41.67
2022-12-18T11:08:24.685Z,43.50
2022-12-18T11:10:48.865Z,44.90
2022-12-18T11:13:14.569Z,43.87
2022-12-18T11:15:35.745Z,42.00
2022-12-18T11:17:57.218Z,41.60
2022-12-18T11:20:25.716Z,41.17
2022-12-18T11:22:56.252Z,42.07
2022-12-18T11:25:33.233Z,40.30
2022-12-18T11:27:56.717Z,39.87
2022-12-18T11:30:23.280Z,40.63
2022-12-18T11:32:45.799Z,40.33
2022-12-18T11:35:14.659Z,41.40
2022-12-18T11:37:37.575Z,40.13
2022-12-18T11:40:00.785Z,39.93
2022-12-18T11:42:25.088Z,40.43
2022-12-18T11:44:49.549Z,40.57
2022-12-18T11:47:15.653Z,41.73
2022-12-18T11:49:37.793Z,39.50
2022-12-18T11:52:02.667Z,41.27
2022-12-18T11:54:25.107Z,41.13
2022-12-18T11:56:48.472Z,39.63
2022-12-18T11:59:14.873Z,41.10
2022-12-18T12:01:44.279Z,40.50
2022-12-18T12:04:23.661Z,40.93
2022-12-18T12:06:50.367Z,39.00
2022-12-18T12:09:16.265Z,39.07
2022-12-18T12:11:46.389Z,39.93
2022-12-18T12:14:17.978Z,40.53
2022-12-18T12:16:41.458Z,41.43
2022-12-18T12:19:05.937Z,42.33
2022-12-18T12:21:29.908Z,43.50
2022-12-18T12:23:55.426Z,41.23
2022-12-18T12:26:19.191Z,40.67
2022-12-18T12:28:56.963Z,41.17
2022-12-18T12:31:23.539Z,41.93
2022-12-18T12:33:50.291Z,42.40
2022-12-18T12:36:16.473Z,40.30
2022-12-18T12:38:39.002Z,40.27
2022-12-18T12:41:03.424Z,41.03
2022-12-18T12:43:26.779Z,42.90
2022-12-18T12:45:51.289Z,45.70
2022-12-18T12:48:16.127Z,41.47
2022-12-18T12:50:39.535Z,43.97
2022-12-18T12:53:01.600Z,45.13
2022-12-18T12:55:24.444Z,44.57
2022-12-18T12:57:48.300Z,42.97
2022-12-18T13:00:11.381Z,44.43
2022-12-18T13:02:37.822Z,41.80
2022-12-18T13:05:03.845Z,41.87
2022-12-18T13:07:28.313Z,42.03
2022-12-18T13:10:09.740Z,42.43
2022-12-18T13:12:49.997Z,42.73
2022-12-18T13:15:21.843Z,44.93
2022-12-18T13:17:44.204Z,43.80
2022-12-18T13:20:10.011Z,42.57
2022-12-18T13:22:33.710Z,40.37
2022-12-18T13:24:55.168Z,41.13
2022-12-18T13:27:31.686Z,42.97
2022-12-18T13:29:52.808Z,52.17
2022-12-18T13:32:23.717Z,42.00
2022-12-18T13:34:47.127Z,38.33
2022-12-18T13:37:42.340Z,38.67
2022-12-18T13:40:03.964Z,36.40
2022-12-18T13:42:57.258Z,34.60
2022-12-18T13:45:36.684Z,28.93
2022-12-18T13:47:58.242Z,29.93
2022-12-18T13:50:24.166Z,29.00
2022-12-18T13:52:45.503Z,26.97
2022-12-18T13:55:08.767Z,30.77
2022-12-18T13:57:30.981Z,35.67
2022-12-18T13:59:53.558Z,38.80
2022-12-18T14:02:16.387Z,38.13
2022-12-18T14:04:38.982Z,38.83
2022-12-18T14:07:04.947Z,38.20
2022-12-18T14:09:28.095Z,40.00
2022-12-18T14:11:51.750Z,36.90
2022-12-18T14:14:15.397Z,37.50
2022-12-18T14:16:38.659Z,38.17
2022-12-18T14:19:04.408Z,37.77
2022-12-18T14:21:34.169Z,39.23
2022-12-18T14:24:07.485Z,39.00
2022-12-18T14:26:30.285Z,38.30
2022-12-18T14:28:51.861Z,38.87
2022-12-18T14:31:19.448Z,40.33
2022-12-18T14:33:41.087Z,38.60
2022-12-18T14:36:03.719Z,37.77
2022-12-18T14:38:26.432Z,35.40
2022-12-18T14:40:48.913Z,37.43
2022-12-18T14:43:11.172Z,39.43
2022-12-18T14:45:40.923Z,38.60
2022-12-18T14:48:02.571Z,40.10
2022-12-18T14:50:24.182Z,38.27
2022-12-18T14:52:45.205Z,38.07
2022-12-18T14:55:06.859Z,37.73
2022-12-18T14:57:32.778Z,35.20
2022-12-18T14:59:54.335Z,34.23
2022-12-18T15:02:20.644Z,35.60
2022-12-18T15:04:44.552Z,37.07
2022-12-18T15:07:14.566Z,37.33
2022-12-18T15:09:36.607Z,37.53
2022-12-18T15:11:58.305Z,38.10
2022-12-18T15:14:32.826Z,36.00
2022-12-18T15:16:55.147Z,36.70
2022-12-18T15:19:18.329Z,35.33
2022-12-18T15:21:44.511Z,33.17
2022-12-18T15:24:06.423Z,32.27
2022-12-18T15:26:27.790Z,35.93
2022-12-18T15:28:50.723Z,37.57
2022-12-18T15:31:24.398Z,33.70
2022-12-18T15:33:47.112Z,33.77
2022-12-18T15:36:11.019Z,38.07
2022-12-18T15:38:32.793Z,37.60
2022-12-18T15:40:54.215Z,29.80
2022-12-18T15:43:32.834Z,29.83
2022-12-18T15:45:54.064Z,28.23
2022-12-18T15:48:21.449Z,30.07
2022-12-18T15:50:42.725Z,29.37
2022-12-18T15:53:04.143Z,36.60
2022-12-18T15:55:44.437Z,33.53
2022-12-18T15:58:05.928Z,33.27
2022-12-18T16:00:26.984Z,38.73
2022-12-18T16:02:48.149Z,40.20
2022-12-18T16:05:15.756Z,38.30
2022-12-18T16:07:36.796Z,36.20
2022-12-18T16:09:58.933Z,36.67
2022-12-18T16:12:23.934Z,35.87
2022-12-18T16:14:45.579Z,36.63
2022-12-18T16:17:08.074Z,34.30
2022-12-18T16:19:29.278Z,33.80
2022-12-18T16:21:52.822Z,34.80
2022-12-18T16:24:16.104Z,35.33
2022-12-18T16:26:37.222Z,34.67
2022-12-18T16:28:58.546Z,33.23
2022-12-18T16:31:19.832Z,33.23
2022-12-18T16:33:41.462Z,33.53
2022-12-18T16:36:03.328Z,28.00
2022-12-18T16:38:25.771Z,27.60
2022-12-18T16:41:00.938Z,27.23
2022-12-18T16:43:21.861Z,29.40
2022-12-18T16:45:44.245Z,29.80
2022-12-18T16:48:05.493Z,30.17
2022-12-18T16:50:26.346Z,28.90
2022-12-18T16:52:47.511Z,30.63
2022-12-18T16:55:10.660Z,30.97
2022-12-18T16:57:31.701Z,26.67
2022-12-18T16:59:53.283Z,28.73
2022-12-18T17:02:15.791Z,27.60
2022-12-18T17:04:38.395Z,24.87
2022-12-18T17:06:59.651Z,25.60
2022-12-18T17:09:23.662Z,25.70
2022-12-18T17:11:46.022Z,27.57
2022-12-18T17:14:07.885Z,29.50
2022-12-18T17:16:28.884Z,28.03
2022-12-18T17:18:50.759Z,25.33
2022-12-18T17:21:13.421Z,24.60
2022-12-18T17:23:34.522Z,26.33
2022-12-18T17:25:56.381Z,27.00
2022-12-18T17:28:19.032Z,29.37
2022-12-18T17:30:40.406Z,26.13
2022-12-18T17:33:01.695Z,27.00
2022-12-18T17:35:22.963Z,26.07
2022-12-18T17:37:44.388Z,28.20
2022-12-18T17:40:06.625Z,27.00
2022-12-18T17:42:28.023Z,26.03
2022-12-18T17:44:50.546Z,28.03
2022-12-18T17:47:12.179Z,26.40
2022-12-18T17:49:33.574Z,30.60
2022-12-18T17:51:54.925Z,32.37
2022-12-18T17:54:15.934Z,33.67
2022-12-18T17:56:36.987Z,30.03
2022-12-18T17:58:59.170Z,29.17
2022-12-18T18:01:23.007Z,29.07
2022-12-18T18:03:45.343Z,33.67
2022-12-18T18:06:08.570Z,35.70
2022-12-18T18:08:29.910Z,59.53
2022-12-18T18:10:51.435Z,41.83
2022-12-18T18:13:42.046Z,64.93
2022-12-18T18:16:07.735Z,66.00
2022-12-18T18:18:30.435Z,44.73
2022-12-18T18:20:51.487Z,61.13
2022-12-18T18:23:15.436Z,99.33
2022-12-18T18:25:37.131Z,54.00
2022-12-18T18:27:58.125Z,48.47
2022-12-18T18:30:19.626Z,45.87
2022-12-18T18:32:41.141Z,39.93
2022-12-18T18:35:03.913Z,38.17
2022-12-18T18:37:25.173Z,40.77
2022-12-18T18:39:46.400Z,36.90
2022-12-18T18:42:07.570Z,35.27
2022-12-18T18:44:29.062Z,35.83
2022-12-18T18:46:50.135Z,32.77
2022-12-18T18:49:11.793Z,32.40
2022-12-18T18:51:35.191Z,32.50
2022-12-18T18:53:56.650Z,32.33
2022-12-18T18:59:01.865Z,33.13
2022-12-18T19:01:23.569Z,33.97
2022-12-18T19:03:45.760Z,32.07
2022-12-18T19:06:07.683Z,31.40
2022-12-18T19:08:31.228Z,31.63
2022-12-18T19:10:57.633Z,30.80
2022-12-18T19:13:21.288Z,36.17
2022-12-18T19:15:42.332Z,34.57
2022-12-18T19:18:03.751Z,34.23
2022-12-18T19:20:24.803Z,32.07
2022-12-18T19:22:54.924Z,33.97
2022-12-18T19:25:18.402Z,33.93
2022-12-18T19:27:40.093Z,33.83
2022-12-18T19:30:01.107Z,32.00
2022-12-18T19:32:22.327Z,32.00
2022-12-18T19:34:43.582Z,30.80
2022-12-18T19:37:06.714Z,29.77
2022-12-18T19:39:27.983Z,28.13
2022-12-18T19:41:51.846Z,28.03
2022-12-18T19:44:13.736Z,27.77
2022-12-18T19:46:35.256Z,27.27
2022-12-18T19:48:56.364Z,27.47
2022-12-18T19:51:18.424Z,29.47
2022-12-18T19:53:39.495Z,30.93
2022-12-18T19:56:05.682Z,28.17
2022-12-18T19:58:27.973Z,26.73
2022-12-18T20:00:48.988Z,29.20
2022-12-18T20:03:23.303Z,28.87
2022-12-18T20:05:48.405Z,29.67
2022-12-18T20:08:09.799Z,32.20
2022-12-18T20:10:32.167Z,31.17
2022-12-18T20:12:53.468Z,32.30
2022-12-18T20:15:17.155Z,32.30
2022-12-18T20:17:39.328Z,32.70
2022-12-18T20:20:00.408Z,30.40
2022-12-18T20:22:21.784Z,32.70
2022-12-18T20:24:42.828Z,31.10
2022-12-18T20:27:04.071Z,33.13
2022-12-18T20:29:25.337Z,31.47
2022-12-18T20:31:48.015Z,31.30
2022-12-18T20:34:09.373Z,32.07
2022-12-18T20:36:30.744Z,31.23
2022-12-18T20:38:59.158Z,31.57
2022-12-18T20:41:22.481Z,30.60
2022-12-18T20:43:44.728Z,31.30
2022-12-18T20:46:07.073Z,30.77
2022-12-18T20:48:29.956Z,28.60
2022-12-18T20:50:58.129Z,28.97
2022-12-18T20:53:21.341Z,28.13
2022-12-18T20:55:43.119Z,30.13
2022-12-18T20:58:04.108Z,31.13
2022-12-18T21:00:25.327Z,31.57
2022-12-18T21:02:46.725Z,31.80
2022-12-18T21:05:09.670Z,30.63
2022-12-18T21:07:30.677Z,34.00
2022-12-18T21:09:51.955Z,33.77
2022-12-18T21:12:35.053Z,36.27
2022-12-18T21:15:10.444Z,33.33
2022-12-18T21:17:32.752Z,31.00
2022-12-18T21:19:59.867Z,30.17
2022-12-18T21:22:22.571Z,30.47
2022-12-18T21:24:43.686Z,29.83
2022-12-18T21:27:05.162Z,31.30
2022-12-18T21:29:27.164Z,30.50
2022-12-18T21:31:48.377Z,33.10
2022-12-18T21:34:11.998Z,36.87
2022-12-18T21:36:33.542Z,34.73
2022-12-18T21:38:56.352Z,34.23
2022-12-18T21:41:31.778Z,35.17
2022-12-18T21:44:08.322Z,36.03
2022-12-18T21:46:29.462Z,35.27
2022-12-18T21:48:51.070Z,34.47
2022-12-18T21:51:12.310Z,34.97
2022-12-18T21:53:33.555Z,34.67
2022-12-18T21:55:59.794Z,34.83
2022-12-18T21:58:21.150Z,32.90
2022-12-18T22:00:46.967Z,32.13
2022-12-18T22:03:18.289Z,31.97
2022-12-18T22:05:40.230Z,33.87
2022-12-18T22:08:02.044Z,31.87
2022-12-18T22:10:23.479Z,31.37
2022-12-18T22:12:46.024Z,32.03
2022-12-18T22:15:07.681Z,32.63
2022-12-18T22:17:28.789Z,34.33
2022-12-18T22:19:50.416Z,34.97
2022-12-18T22:22:11.601Z,34.47
2022-12-18T22:24:32.948Z,34.37
2022-12-18T22:26:58.429Z,34.37
2022-12-18T22:29:43.019Z,40.00
2022-12-18T22:32:05.003Z,50.60
2022-12-18T22:34:26.390Z,40.03
2022-12-18T22:36:48.592Z,36.10
2022-12-18T22:39:11.275Z,34.10
2022-12-18T22:41:32.615Z,35.87
2022-12-18T22:43:53.892Z,35.43
2022-12-18T22:46:18.333Z,35.67
2022-12-18T22:48:39.886Z,37.47
2022-12-18T22:51:01.110Z,39.47
2022-12-18T22:53:22.318Z,43.73
2022-12-18T22:55:43.630Z,50.93
2022-12-18T22:58:04.944Z,60.30
2022-12-18T23:00:26.358Z,41.30
2022-12-18T23:02:48.838Z,36.37
2022-12-18T23:05:10.631Z,34.80
2022-12-18T23:07:31.682Z,40.93
2022-12-18T23:10:00.882Z,37.63
2022-12-18T23:12:22.367Z,37.30
2022-12-18T23:14:43.922Z,35.37
2022-12-18T23:17:04.978Z,37.80
2022-12-18T23:19:27.675Z,34.87
2022-12-18T23:21:49.224Z,35.07
2022-12-18T23:24:10.350Z,36.67
2022-12-18T23:26:31.699Z,34.30
2022-12-18T23:28:53.454Z,36.13
2022-12-18T23:31:15.437Z,35.67
2022-12-18T23:33:37.986Z,42.50
2022-12-18T23:36:01.714Z,43.33
2022-12-18T23:38:22.788Z,37.33
2022-12-18T23:40:44.241Z,36.80
2022-12-18T23:43:07.434Z,36.13
2022-12-18T23:45:28.793Z,35.70
2022-12-18T23:47:51.033Z,34.33
2022-12-18T23:50:12.220Z,35.37
2022-12-18T23:52:34.763Z,35.67
2022-12-18T23:54:56.319Z,35.67
2022-12-18T23:57:17.524Z,34.20
2022-12-18T23:59:40.954Z,37.03
